Tropical Cyclones
[Index]
Main Index Home Page Stock Weather Photos Extreme Storms Discussion Storm News and Storm Chasing Reports Tropical Cyclones / Hurricanes / Typhoons Weather Data and Links Wild Fires / Bushfires Weather Observation Techniques Weather Picture Catalogue Tornado Pictures and Reports Stock Video Footage and DVDs for sale
Season 1968-1969 Tropical Cyclone 196913 Track Map
Season 1968-1969 Summaries: [BoM-AU] [JTWC-AU] [JTWC-SIO] [JTWC-SPAC] [JTWC-SH]
<<- Previous TC | JTWC 1968-1969 Season | Next TC ->>

click for intensity scale information  Lat/long Grid: Show Hide

 Date Labels: Show Hide

Joint Typhoon Warning Centre Cyclone Data

Name: 196913
Number: 691 / 6913

07 Jan 1969 12:00 UTC to 16 Jan 1969 00:00 UTC

    date/time    lat    long     hPa   cat  kts
1969-01-07 12   12.0   179.2                              
1969-01-07 18   12.2   179.9                              
1969-01-08 00   12.1   179.9W                             
1969-01-08 06   11.4   179.6                              
1969-01-08 12   10.7   179.2                              
1969-01-08 18   10.8   179.7                              
1969-01-09 00   10.9   179.7W                             
1969-01-09 06   10.4   179.3W                             
1969-01-09 12   10.0   178.9W                             
1969-01-09 18   10.0   179.3W                             
1969-01-10 00   10.2   179.6W                             
1969-01-10 06   10.6   179.0W                             
1969-01-10 12   10.9   178.4W                             
1969-01-10 18   11.0   177.7W                             
1969-01-11 00   11.2   177.0W                             
1969-01-11 06   11.4   176.5W                             
1969-01-11 12   11.6   176.2W                             
1969-01-11 18   11.8   176.5W                             
1969-01-12 00   12.0   176.9W                             
1969-01-12 06   12.5   177.0W                             
1969-01-12 12   13.2   176.8W                             
1969-01-12 18   13.5   175.9W                             
1969-01-13 00   13.9   175.0W                             
1969-01-13 06   14.9   174.8W                             
1969-01-13 12   16.1   174.6W                             
1969-01-13 18   17.0   174.4W                             
1969-01-14 00   18.0   174.0W                             
1969-01-14 06   19.6   173.1W                             
1969-01-14 12   21.2   171.9W                             
1969-01-14 18   22.4   170.6W                             
1969-01-15 00   23.4   169.3W                             
1969-01-15 06   24.4   168.1W                             
1969-01-15 12   25.2   166.9W                             
1969-01-15 18   25.8   165.5W                             
1969-01-16 00   26.0   163.9W                             
Winds are 1-min average.

Tropical cyclone tracks developed by Michael Bath using data from the Joint Typhoon Warning Centre Best Tracks and Google Maps.


[Australian Severe Weather index] [Copyright Notice] [Email Contacts] [Search This Site] [Privacy Policy]
Document: tropical_cyclone_196913.htm Updated: 18 September 2016